Station: Koolan Island / Koolan Central  

  Atmospheric Gas Attenuation - ITU Rec 676-11   ----------------- dB/100km -----------------
Date Time Temp RH % AH g/m3 Dew Point Wind Direction Speed kph Gust kph Barometer mB Rainfall Since 9am 24GHz 47GHz 76GHz 122GHz 134GHz 241GHz
08/05 09:20 25.2 38 8.85 10.1 26 35 1013.1 0 19.6 23.2 35.4 92.9 88.0 303.6
08/05 09:10 25 39 8.98 10.1 24 30 1013.1 0 19.9 23.4 36.0 94.4 89.7 309.5
08/05 09:00 25.1 41 9.49 10.9 22 35 1013.1 0 20.9 24.1 37.7 99.0 95.5 329.9
08/05 08:50 25.1 41 9.49 11 24 32 1013.1 0 20.9 24.1 37.7 99.0 95.5 329.9
08/05 08:39 24.8 40 9.1 10.5 20 28 1013.1 0 20.1 23.6 36.5 95.7 91.4 315.2
08/05 08:30 24.6 41 9.23 10.5 17 28 1013.1 0 20.4 23.9 37.0 97.2 93.1 321.2
08/05 08:19 24.6 41 9.23 10.5 17 20 1013.1 0 20.4 23.9 37.0 97.2 93.1 321.2
08/05 08:09 24.5 40 8.95 10.3 17 20 1013.1 0 19.8 23.5 36.1 94.7 90.0 310.2
08/05 08:00 24.3 41 9.07 10.2 19 30 1013.1 0 20.1 23.7 36.6 96.0 91.6 315.9
08/05 07:50 24.3 41 9.07 10.3 26 30 1013.1 0 20.1 23.7 36.6 96.0 91.6 315.9
08/05 07:39 24 41 8.92 10.2 24 28 1013.1 0 19.8 23.6 36.2 95.0 90.2 310.9
08/05 07:30 24.1 42 9.19 10.4 20 30 1013.1 0 20.3 24.0 37.1 97.4 93.2 321.6
08/05 07:20 24 42 9.14 10.6 24 28 1013.1 0 20.2 23.9 37.0 97.0 92.7 319.9
08/05 07:09 23.9 42 9.09 10.3 22 26 1013.1 0 20.1 23.9 36.8 96.7 92.3 318.3
08/05 07:00 23.8 43 9.25 10.5 20 32 1013.1 0 20.5 24.1 37.5 98.3 94.3 325.2
08/05 06:50 23.7 43 9.2 10.4 22 26 1013.1 0 20.4 24.1 37.3 98.0 93.8 323.6
08/05 06:40 23.7 42 8.98 10.2 22 28 1013.1 0 19.9 23.8 36.5 95.9 91.2 314.5
08/05 06:30 23.7 43 9.2 10.4 24 35 1013.1 0 20.4 24.1 37.3 98.0 93.8 323.6
08/05 06:19 23.6 42 8.93 10.2 24 30 1013.1 0 19.8 23.7 36.4 95.5 90.7 312.9
08/05 06:10 23.7 42 8.98 10.1 28 30 1013.1 0 19.9 23.8 36.5 95.9 91.2 314.5
08/05 06:00 23.7 43 9.2 10.4 28 37 1013.1 0 20.4 24.1 37.3 98.0 93.8 323.6
08/05 05:50 23.7 43 9.2 10.4 26 30 1013.1 0 20.4 24.1 37.3 98.0 93.8 323.6
08/05 05:39 23.9 42 9.09 10.3 26 32 1013.1 0 20.1 23.9 36.8 96.7 92.3 318.3
08/05 05:30 23.9 43 9.3 10.6 26 35 1013.1 0 20.6 24.2 37.6 98.7 94.7 326.9
08/05 05:19 24.1 42 9.19 10.5 26 30 1013.1 0 20.3 24.0 37.1 97.4 93.2 321.6
08/05 05:09 24.2 42 9.24 10.5 26 33 1013.1 0 20.4 24.0 37.2 97.8 93.7 323.2
08/05 05:00 24.2 43 9.46 10.8 24 32 1013.1 0 20.9 24.3 38.0 99.9 96.3 332.3
08/05 04:49 24.3 43 9.52 11.1 24 28 1013.1 0 21.0 24.4 38.2 100.3 96.9 334.4
08/05 04:37 24.4 43 9.57 11.3 20 28 1013.1 0 21.1 24.4 38.3 100.7 97.3 336.0
08/05 04:27 24.5 43 9.62 11.2 20 22 1013.1 0 21.2 24.5 38.5 101.0 97.8 337.7
08/05 04:20 24.5 42 9.4 11 28 32 1013.1 0 20.8 24.1 37.7 98.9 95.2 328.6
08/05 04:10 24.5 43 9.62 11.3 22 30 1013.1 0 21.2 24.5 38.5 101.0 97.8 337.7
08/05 04:00 24.6 43 9.68 11.2 24 30 1013.1 0 21.3 24.5 38.6 101.5 98.4 339.8
08/05 03:50 24.7 42 9.51 11.2 20 24 1013.1 0 21.0 24.3 38.0 99.7 96.3 332.3
08/05 03:39 24.8 42 9.56 11.2 24 28 1013.1 0 21.1 24.3 38.1 100.1 96.7 334.0
08/05 03:28 24.8 42 9.56 11.3 26 30 1013.1 0 21.1 24.3 38.1 100.1 96.7 334.0
08/05 03:20 24.9 42 9.61 11.2 32 35 1013.1 0 21.2 24.3 38.2 100.4 97.2 335.6
08/05 03:10 24.9 42 9.61 11.2 24 26 1013.1 0 21.2 24.3 38.2 100.4 97.2 335.6
08/05 02:59 25 42 9.67 11.4 24 32 1013.1 0 21.3 24.4 38.4 100.9 97.8 337.7
08/05 02:49 25.1 43 9.95 11.7 24 30 1013.1 0 21.9 24.8 39.4 103.4 101.0 348.8
08/05 02:39 25.1 43 9.95 11.8 20 22 1013.1 0 21.9 24.8 39.4 103.4 101.0 348.8
08/05 02:30 25.2 44 10.24 12.1 26 39 1013.1 0 22.5 25.2 40.4 106.1 104.3 360.5
08/05 02:20 25.4 41 9.65 11.5 24 30 1013.1 0 21.2 24.3 38.1 100.2 97.0 335.2
08/05 02:10 25.4 42 9.89 11.8 22 28 1013.1 0 21.7 24.6 39.0 102.5 99.9 345.1
08/05 02:00 25.6 42 10 11.7 26 39 1013.1 0 22.0 24.7 39.3 103.3 100.9 348.7
08/05 01:49 25.5 41 9.71 11.5 22 24 1013.1 0 21.4 24.3 38.3 100.6 97.6 337.2
08/05 01:39 25.5 40 9.47 11.1 26 32 1013.1 0 20.9 24.0 37.5 98.4 94.8 327.4
08/05 01:30 25.5 40 9.47 10.9 24 33 1013.1 0 20.9 24.0 37.5 98.4 94.8 327.4
08/05 01:19 25.6 38 9.05 10.5 26 32 1013.1 0 20.0 23.4 35.9 94.3 89.9 310.1
08/05 01:10 25.6 39 9.28 10.6 28 32 1013.1 0 20.5 23.7 36.7 96.5 92.5 319.3
08/05 01:00 25.5 39 9.23 10.5 28 37 1013.1 0 20.4 23.6 36.6 96.1 92.1 317.7
08/05 00:50 25.8 39 9.39 11 32 37 1013.1 0 20.7 23.8 37.0 97.3 93.5 323.0
08/05 00:39 25.9 38 9.2 10.7 26 30 1013.1 0 20.3 23.5 36.3 95.4 91.3 314.9
08/05 00:30 26 37 9.01 10.2 28 37 1013.1 0 19.9 23.2 35.6 93.5 89.0 307.0
08/05 00:19 26.2 35 8.62 9.9 30 33 1013.1 0 19.1 22.6 34.2 89.7 84.4 290.8
08/05 00:09 26.1 36 8.81 10.2 26 30 1013.1 0 19.5 22.9 34.9 91.5 86.6 298.7
08/05 00:00 26.1 37 9.06 10.3 26 33 1013.1 0 20.0 23.3 35.8 93.8 89.4 308.6
07/05 23:50 26.2 35 8.62 9.9 30 35 1013.1 0 19.1 22.6 34.2 89.7 84.4 290.8
07/05 23:40 26.3 36 8.91 10.3 30 35 1013.1 0 19.6 23.0 35.2 92.2 87.5 301.9
07/05 23:30 26.3 40 9.9 11.6 24 35 1013.1 0 21.7 24.4 38.6 101.5 98.9 341.7
07/05 23:19 26.3 41 10.15 12.1 20 22 1013.1 0 22.2 24.8 39.5 103.8 101.8 351.9
07/05 23:10 26.1 42 10.28 12.4 22 24 1013.1 0 22.5 25.0 40.1 105.3 103.6 358.1
07/05 23:00 26.1 40 9.79 11.5 20 30 1013.1 0 21.5 24.3 38.3 100.7 97.8 338.0
07/05 22:50 25.9 41 9.93 11.8 19 22 1013.1 0 21.8 24.5 38.9 102.2 99.7 344.6
07/05 22:40 26.1 41 10.04 11.8 19 22 1013.1 0 22.0 24.6 39.2 103.0 100.8 348.2
07/05 22:30 26.2 40 9.85 11.5 22 26 1013.1 0 21.6 24.3 38.5 101.1 98.4 340.0
07/05 22:20 26.2 40 9.85 11.7 20 22 1013.1 0 21.6 24.3 38.5 101.1 98.4 340.0
07/05 22:10 26.3 39 9.65 11.4 22 26 1013.1 0 21.2 24.0 37.7 99.1 96.0 331.5
07/05 22:00 26.4 39 9.71 11.3 24 30 1013.1 0 21.3 24.1 37.9 99.5 96.5 333.5
07/05 21:50 26.4 39 9.71 11.3 26 30 1013.1 0 21.3 24.1 37.9 99.5 96.5 333.5
07/05 21:40 26.6 39 9.82 11.6 22 24 1013.1 0 21.5 24.2 38.2 100.3 97.6 337.1
07/05 21:30 26.7 39 9.87 11.6 24 28 1013.1 0 21.6 24.2 38.3 100.7 98.0 338.8
07/05 21:20 26.9 38 9.73 11.4 24 26 1013.1 0 21.3 24.0 37.7 99.1 96.2 332.3
07/05 21:10 27 37 9.52 11.3 24 26 1013.1 0 20.9 23.7 37.0 97.0 93.6 323.4
07/05 21:00 27 38 9.78 11.5 26 33 1013.1 0 21.4 24.0 37.9 99.5 96.6 333.9
07/05 20:50 27.1 37 9.58 11.4 26 28 1013.1 0 21.0 23.7 37.1 97.5 94.2 325.4
07/05 20:40 27.2 36 9.37 11.2 26 32 1013.1 0 20.6 23.4 36.3 95.4 91.7 316.7
07/05 20:30 27.4 37 9.74 11.4 28 32 1013.1 0 21.3 23.9 37.5 98.6 95.7 330.6
07/05 20:20 27.4 38 10 11.8 28 32 1013.1 0 21.9 24.2 38.4 101.0 98.7 341.1
07/05 20:09 27.5 39 10.32 12.3 26 30 1013.1 0 22.5 24.7 39.5 103.9 102.2 353.6
07/05 20:00 27.6 39 10.38 12.4 22 30 1013.1 0 22.6 24.7 39.7 104.3 102.8 355.6
07/05 19:49 27.8 39 10.49 12.9 20 22 1013.1 0 22.9 24.8 40.0 105.1 103.8 359.2
07/05 19:40 27.5 42 11.11 13.5 20 22 1013.1 0 24.2 25.8 42.4 111.5 111.6 386.2
07/05 19:30 27.3 51 13.35 16.3 13 19 1013.1 0 28.8 29.3 50.9 134.3 139.6 484.1
07/05 19:20 27.2 57 14.83 18.1 9 11 1013.1 0 32.0 31.7 56.9 150.2 159.1 552.4
07/05 19:10 27.5 54 14.29 17.4 9 9 1013.1 0 30.8 30.7 54.5 143.8 151.4 525.4
07/05 19:00 27.6 54 14.37 17.5 7 13 1013.1 0 31.0 30.8 54.7 144.5 152.2 528.4
07/05 18:49 27.6 54 14.37 17.7 9 11 1013.1 0 31.0 30.8 54.7 144.5 152.2 528.4
07/05 18:40 27.6 54 14.37 17.7 9 11 1013.1 0 31.0 30.8 54.7 144.5 152.2 528.4
07/05 18:30 27.7 54 14.45 17.8 13 19 1013.1 0 31.1 30.9 55.0 145.2 153.1 531.4
07/05 18:20 27.8 52 13.99 17.3 13 15 1013.1 0 30.1 30.1 53.1 140.1 146.9 509.8
07/05 18:09 28 51 13.87 17 9 9 1013.1 0 29.9 29.9 52.5 138.5 145.0 503.1
07/05 18:00 28.3 47 12.99 15.9 4 7 1013.1 0 28.0 28.4 48.9 128.9 133.3 462.3
07/05 17:50 28.3 47 12.99 16 4 4 1013.1 0 28.0 28.4 48.9 128.9 133.3 462.3
07/05 17:40 28.4 45 12.51 15.5 4 4 1013.1 0 27.0 27.6 47.0 123.9 127.2 440.9
07/05 17:30 28.5 46 12.86 15.8 4 6 1013.1 0 27.7 28.1 48.3 127.3 131.3 455.5
07/05 17:19 28.5 45 12.58 15.6 4 6 1013.1 0 27.2 27.7 47.2 124.5 127.9 443.4
07/05 17:10 28.5 46 12.86 16 4 6 1013.1 0 27.7 28.1 48.3 127.3 131.3 455.5
07/05 17:00 28.7 45 12.72 15.6 4 6 1013.1 0 27.4 27.9 47.6 125.6 129.3 448.3
07/05 16:50 28.7 43 12.15 15.1 2 4 1013.1 0 26.3 27.0 45.5 119.9 122.3 423.9

Last Refresh: 08-May-2026 11:03:46

Bureau of Meteorology